createdAt,value
2022-09-09T00:02:32.111Z,99717.75
2022-09-09T00:05:27.757Z,99719.47
2022-09-09T00:08:22.067Z,99714.47
2022-09-09T00:11:13.504Z,99702.41
2022-09-09T00:14:05.463Z,99708.47
2022-09-09T00:16:58.402Z,99708.81
2022-09-09T00:19:51.325Z,99692.69
2022-09-09T00:22:41.630Z,99692.94
2022-09-09T00:25:36.041Z,99710.44
2022-09-09T00:28:27.926Z,99712.09
2022-09-09T00:31:20.903Z,99698.97
2022-09-09T00:34:15.783Z,99719.78
2022-09-09T00:37:05.023Z,99700.47
2022-09-09T00:39:57.268Z,99712.56
2022-09-09T00:42:47.202Z,99706.03
2022-09-09T00:45:57.586Z,99708.97
2022-09-09T00:48:53.160Z,99707.69
2022-09-09T00:51:51.258Z,99705.22
2022-09-09T00:54:47.540Z,99703.56
2022-09-09T00:57:37.191Z,99701.59
2022-09-09T01:00:30.023Z,99645.69
2022-09-09T01:03:25.297Z,99698.34
2022-09-09T01:06:17.082Z,99713.63
2022-09-09T01:09:19.767Z,99716.50
2022-09-09T01:12:15.593Z,99709.28
2022-09-09T01:15:11.112Z,99717.59
2022-09-09T01:18:05.705Z,99730.72
2022-09-09T01:21:01.167Z,99728.38
2022-09-09T01:24:07.863Z,99742.13
2022-09-09T01:26:59.148Z,99749.13
2022-09-09T01:29:47.834Z,99752.09
2022-09-09T01:32:42.808Z,99741.16
2022-09-09T01:35:39.237Z,99753.97
2022-09-09T01:38:28.093Z,99753.78
2022-09-09T01:41:16.612Z,99749.13
2022-09-09T01:44:07.248Z,99761.28
2022-09-09T01:46:55.812Z,99751.44
2022-09-09T01:49:44.269Z,99751.91
2022-09-09T01:52:33.405Z,99748.59
2022-09-09T01:55:28.928Z,99743.94
2022-09-09T01:58:26.432Z,99750.56
2022-09-09T02:01:23.459Z,99740.50
2022-09-09T02:04:20.779Z,99740.25
2022-09-09T02:07:19.087Z,99736.41
2022-09-09T02:10:12.574Z,99740.25
2022-09-09T02:13:04.464Z,99731.25
2022-09-09T02:15:57.317Z,99738.00
2022-09-09T02:18:51.376Z,99720.91
2022-09-09T02:21:40.867Z,99734.22
2022-09-09T02:24:30.638Z,99708.28
2022-09-09T02:27:20.276Z,99719.53
2022-09-09T02:30:10.323Z,99719.31
2022-09-09T02:33:00.239Z,99695.84
2022-09-09T02:35:50.778Z,99674.91
2022-09-09T02:38:42.954Z,99701.91
2022-09-09T02:41:33.839Z,99708.91
2022-09-09T02:44:23.140Z,99678.50
2022-09-09T02:47:29.121Z,99698.31
2022-09-09T02:50:20.091Z,99684.78
2022-09-09T02:53:15.920Z,99693.91
2022-09-09T02:56:06.715Z,99688.63
2022-09-09T02:58:55.407Z,99694.81
2022-09-09T03:01:44.972Z,99683.63
2022-09-09T03:04:33.900Z,99693.16
2022-09-09T03:07:23.921Z,99688.22
2022-09-09T03:10:14.410Z,99697.91
2022-09-09T03:13:03.195Z,99698.47
2022-09-09T03:15:52.668Z,99700.91
2022-09-09T03:18:41.091Z,99693.88
2022-09-09T03:21:29.519Z,99698.22
2022-09-09T03:24:17.961Z,99696.06
2022-09-09T03:27:07.976Z,99705.28
2022-09-09T03:29:56.907Z,99705.53
2022-09-09T03:32:48.885Z,99708.50
2022-09-09T03:35:37.985Z,99719.38
2022-09-09T03:38:26.649Z,99722.66
2022-09-09T03:41:15.352Z,99710.16
2022-09-09T03:44:05.351Z,99717.53
2022-09-09T03:46:53.852Z,99712.44
2022-09-09T03:49:42.263Z,99709.72
2022-09-09T03:52:31.661Z,99714.03
2022-09-09T03:55:20.085Z,99715.06
2022-09-09T03:58:08.801Z,99715.56
2022-09-09T04:01:00.495Z,99583.34
2022-09-09T04:03:49.015Z,99708.78
2022-09-09T04:06:37.446Z,99705.97
2022-09-09T04:09:25.933Z,99712.47
2022-09-09T04:12:14.798Z,99723.03
2022-09-09T04:15:04.007Z,99686.72
2022-09-09T04:17:53.792Z,99721.59
2022-09-09T04:20:43.346Z,99727.00
2022-09-09T04:23:31.807Z,99727.31
2022-09-09T04:26:21.041Z,99723.81
2022-09-09T04:29:09.480Z,99732.53
2022-09-09T04:31:57.977Z,99735.81
2022-09-09T04:34:48.691Z,99734.00
2022-09-09T04:37:37.088Z,99735.63
2022-09-09T04:40:26.006Z,99730.69
2022-09-09T04:43:15.366Z,99734.16
2022-09-09T04:46:04.104Z,99744.88
2022-09-09T04:48:53.606Z,99750.28
2022-09-09T04:51:43.896Z,99758.22
2022-09-09T04:54:33.202Z,99753.88
2022-09-09T04:57:21.702Z,99757.41
2022-09-09T05:00:11.986Z,99761.75
2022-09-09T05:03:00.426Z,99756.03
2022-09-09T05:05:48.819Z,99762.00
2022-09-09T05:08:39.232Z,99763.06
2022-09-09T05:11:29.366Z,99759.31
2022-09-09T05:14:18.160Z,99758.22
2022-09-09T05:17:06.748Z,99761.50
2022-09-09T05:19:55.156Z,99752.22
2022-09-09T05:22:43.577Z,99761.31
2022-09-09T05:25:33.387Z,99765.38
2022-09-09T05:28:21.863Z,99768.66
2022-09-09T05:31:12.378Z,99760.22
2022-09-09T05:34:01.540Z,99768.75
2022-09-09T05:36:50.005Z,99773.06
2022-09-09T05:39:38.889Z,99773.56
2022-09-09T05:42:32.074Z,99774.00
2022-09-09T05:45:20.756Z,99777.59
2022-09-09T05:48:09.415Z,99770.78
2022-09-09T05:50:57.888Z,99780.09
2022-09-09T05:53:47.070Z,99778.00
2022-09-09T05:56:35.485Z,99772.50
2022-09-09T05:59:25.553Z,99778.44
2022-09-09T06:02:14.624Z,99784.06
2022-09-09T06:05:03.122Z,99785.66
2022-09-09T06:07:54.490Z,99785.63
2022-09-09T06:10:42.901Z,99771.09
2022-09-09T06:13:31.657Z,99792.75
2022-09-09T06:16:24.021Z,99793.94
2022-09-09T06:19:13.200Z,99803.22
2022-09-09T06:22:01.583Z,99801.59
2022-09-09T06:24:49.992Z,99794.25
2022-09-09T06:27:38.414Z,99798.03
2022-09-09T06:30:26.874Z,99793.16
2022-09-09T06:33:16.684Z,99798.56
2022-09-09T06:36:05.990Z,99791.75
2022-09-09T06:38:54.965Z,99792.28
2022-09-09T06:41:44.373Z,99790.63
2022-09-09T06:44:35.182Z,99801.50
2022-09-09T06:47:25.552Z,99793.59
2022-09-09T06:50:15.671Z,99796.34
2022-09-09T06:53:04.093Z,99796.44
2022-09-09T06:55:52.660Z,99793.44
2022-09-09T06:58:44.024Z,99808.97
2022-09-09T07:01:34.349Z,99772.22
2022-09-09T07:04:22.799Z,99810.63
2022-09-09T07:07:14.676Z,99797.81
2022-09-09T07:10:04.168Z,99802.47
2022-09-09T07:12:53.738Z,99801.09
2022-09-09T07:15:42.450Z,99762.44
2022-09-09T07:18:31.723Z,99789.91
2022-09-09T07:21:21.664Z,99791.38
2022-09-09T07:24:13.676Z,99793.63
2022-09-09T07:27:04.386Z,99794.63
2022-09-09T07:29:55.152Z,99809.75
2022-09-09T07:32:43.566Z,99807.41
2022-09-09T07:35:32.077Z,99816.72
2022-09-09T07:38:20.589Z,99814.66
2022-09-09T07:41:12.727Z,99813.31
2022-09-09T07:44:01.162Z,99810.56
2022-09-09T07:46:50.096Z,99804.75
2022-09-09T07:49:38.564Z,99814.41
2022-09-09T07:52:28.444Z,99803.44
2022-09-09T07:55:17.080Z,99814.16
2022-09-09T07:58:06.873Z,99805.16
2022-09-09T08:00:55.685Z,99826.78
2022-09-09T08:03:45.205Z,99782.44
2022-09-09T08:06:37.740Z,99817.34
2022-09-09T08:09:29.626Z,99815.59
2022-09-09T08:12:18.184Z,99807.16
2022-09-09T08:15:08.929Z,99818.97
2022-09-09T08:17:58.208Z,99822.41
2022-09-09T08:20:46.675Z,99811.53
2022-09-09T08:23:36.109Z,99819.88
2022-09-09T08:26:27.667Z,99821.34
2022-09-09T08:29:16.130Z,99829.66
2022-09-09T08:32:06.249Z,99835.84
2022-09-09T08:34:54.943Z,99842.09
2022-09-09T08:37:43.600Z,99841.84
2022-09-09T08:40:35.287Z,99855.13
2022-09-09T08:43:25.428Z,99859.38
2022-09-09T08:46:18.202Z,99844.13
2022-09-09T08:49:19.197Z,99855.19
2022-09-09T08:52:11.816Z,99856.88
2022-09-09T08:55:06.503Z,99844.91
2022-09-09T08:57:57.143Z,99850.75
2022-09-09T09:01:04.662Z,99840.69
2022-09-09T09:03:56.803Z,99853.78
2022-09-09T09:06:53.213Z,99864.72
2022-09-09T09:09:48.742Z,99859.94
2022-09-09T09:12:41.481Z,99853.44
2022-09-09T09:15:37.253Z,99858.97
2022-09-09T09:18:25.772Z,99839.63
2022-09-09T09:21:16.611Z,99827.66
2022-09-09T09:24:07.640Z,99832.56
2022-09-09T09:26:56.449Z,99833.66
2022-09-09T09:30:10.826Z,99834.44
2022-09-09T09:32:57.135Z,99808.84
2022-09-09T09:35:45.636Z,99830.13
2022-09-09T09:41:46.540Z,99846.41
2022-09-09T09:44:38.113Z,99821.09
2022-09-09T09:47:27.887Z,99845.53
2022-09-09T09:50:20.678Z,99847.56
2022-09-09T09:53:23.148Z,99852.56
2022-09-09T09:56:13.741Z,99855.34
2022-09-09T09:59:09.311Z,99852.16
2022-09-09T10:02:17.660Z,99832.63
2022-09-09T10:05:11.075Z,99839.63
2022-09-09T10:08:07.209Z,99849.56
2022-09-09T10:11:11.675Z,99852.13
2022-09-09T10:14:07.941Z,99831.50
2022-09-09T10:17:06.255Z,99853.00
2022-09-09T10:20:03.123Z,99724.50
2022-09-09T10:22:53.876Z,99843.09
2022-09-09T10:25:58.473Z,99835.09
2022-09-09T10:29:33.752Z,99828.91
2022-09-09T10:32:49.067Z,99828.69
2022-09-09T10:35:45.407Z,99770.53
2022-09-09T10:38:39.391Z,99824.38
2022-09-09T10:41:40.505Z,99825.16
2022-09-09T10:44:41.896Z,99821.72
2022-09-09T10:47:47.401Z,99826.09
2022-09-09T10:51:07.296Z,99810.31
2022-09-09T10:54:09.102Z,99844.56
2022-09-09T10:57:01.120Z,99844.00
2022-09-09T10:59:58.363Z,99838.22
2022-09-09T11:02:48.671Z,99834.97
2022-09-09T11:05:42.125Z,99843.53
2022-09-09T11:08:31.891Z,99859.72
2022-09-09T11:11:23.682Z,99843.34
2022-09-09T11:14:17.222Z,99833.72
2022-09-09T11:17:12.914Z,99838.84
2022-09-09T11:20:01.670Z,99841.63
2022-09-09T11:22:54.005Z,99836.06
2022-09-09T11:25:45.438Z,99831.53
2022-09-09T11:28:43.513Z,99836.00
2022-09-09T11:31:45.479Z,99836.06
2022-09-09T11:34:41.519Z,99836.88
2022-09-09T11:37:53.140Z,99834.38
2022-09-09T11:40:41.970Z,99831.13
2022-09-09T11:43:33.112Z,99824.31
2022-09-09T11:46:23.766Z,99798.56
2022-09-09T11:49:28.984Z,99806.41
2022-09-09T11:52:26.529Z,99801.88
2022-09-09T11:55:28.505Z,99796.00
2022-09-09T11:58:19.381Z,99790.97
2022-09-09T12:01:32.901Z,99785.13
2022-09-09T12:04:34.245Z,99787.75
2022-09-09T12:07:35.930Z,99802.56
2022-09-09T12:10:27.821Z,99769.94
2022-09-09T12:13:18.165Z,99793.94
2022-09-09T12:16:07.208Z,99792.44
2022-09-09T12:19:06.465Z,99781.56
2022-09-09T12:22:01.901Z,99790.22
2022-09-09T12:24:55.272Z,99792.13
2022-09-09T12:27:47.274Z,99771.66
2022-09-09T12:30:41.442Z,99766.69
2022-09-09T12:33:37.023Z,99771.53
2022-09-09T12:36:29.396Z,99761.25
2022-09-09T12:39:21.055Z,99773.34
2022-09-09T12:42:18.597Z,99767.00
2022-09-09T12:45:18.738Z,99769.09
2022-09-09T12:48:08.820Z,99763.63
2022-09-09T12:50:58.407Z,99762.84
2022-09-09T12:53:47.657Z,99774.13
2022-09-09T12:56:36.264Z,99772.53
2022-09-09T12:59:28.439Z,99782.84
2022-09-09T13:02:22.703Z,99813.38
2022-09-09T13:05:17.850Z,99806.59
2022-09-09T13:08:08.550Z,99783.47
2022-09-09T13:11:02.843Z,99775.53
2022-09-09T13:13:53.917Z,99768.34
2022-09-09T13:16:43.859Z,99760.47
2022-09-09T13:19:35.946Z,99752.25
2022-09-09T13:22:31.171Z,99753.66
2022-09-09T13:25:22.874Z,99756.72
2022-09-09T13:28:22.997Z,99768.59
2022-09-09T13:31:22.790Z,99772.28
2022-09-09T13:34:17.089Z,99748.59
2022-09-09T13:37:07.905Z,99740.97
2022-09-09T13:39:56.924Z,99723.91
2022-09-09T13:42:46.544Z,99741.72
2022-09-09T13:45:35.784Z,99734.94
2022-09-09T13:48:24.826Z,99732.44
2022-09-09T13:51:35.216Z,99742.16
2022-09-09T13:54:24.220Z,99645.00
2022-09-09T13:57:18.436Z,99746.34
2022-09-09T14:00:11.545Z,99707.53
2022-09-09T14:03:03.007Z,99738.56
2022-09-09T14:05:51.656Z,99724.31
2022-09-09T14:08:41.633Z,99725.63
2022-09-09T14:11:30.155Z,99725.81
2022-09-09T14:14:18.744Z,99735.22
2022-09-09T14:17:08.252Z,99736.00
2022-09-09T14:19:57.152Z,99738.59
2022-09-09T14:22:46.121Z,99739.13
2022-09-09T14:25:36.116Z,99735.72
2022-09-09T14:28:39.359Z,99731.53
2022-09-09T14:31:33.603Z,99699.81
2022-09-09T14:34:22.151Z,99727.88
2022-09-09T14:37:10.667Z,99766.22
2022-09-09T14:39:59.265Z,99751.13
2022-09-09T14:42:49.109Z,99771.53
2022-09-09T14:45:39.398Z,99762.13
2022-09-09T14:48:28.557Z,99764.34
2022-09-09T14:51:20.299Z,99760.25
2022-09-09T14:54:08.789Z,99771.97
2022-09-09T14:56:58.093Z,99754.28
2022-09-09T14:59:47.925Z,99771.97
2022-09-09T15:02:36.532Z,99807.91
2022-09-09T15:05:26.142Z,99810.06
2022-09-09T15:08:14.831Z,99796.47
2022-09-09T15:11:03.638Z,99790.72
2022-09-09T15:13:54.208Z,99742.19
2022-09-09T15:16:44.021Z,99766.63
2022-09-09T15:19:33.168Z,99768.78
2022-09-09T15:22:21.617Z,99754.31
2022-09-09T15:25:10.413Z,99764.94
2022-09-09T15:27:59.277Z,99775.06
2022-09-09T15:30:49.944Z,99774.28
2022-09-09T15:33:39.873Z,99774.56
2022-09-09T15:36:31.264Z,99778.72
2022-09-09T15:39:20.815Z,99760.50
2022-09-09T15:42:09.536Z,99808.44
2022-09-09T15:44:58.071Z,99799.19
2022-09-09T15:47:46.590Z,99803.25
2022-09-09T15:50:36.453Z,99815.50
2022-09-09T15:53:24.985Z,99798.38
2022-09-09T15:56:13.551Z,99812.28
2022-09-09T15:59:03.923Z,99813.34
2022-09-09T16:01:52.910Z,99814.44
2022-09-09T16:04:41.960Z,99822.03
2022-09-09T16:07:31.835Z,99814.66
2022-09-09T16:10:20.320Z,99819.03
2022-09-09T16:13:10.148Z,99807.84
2022-09-09T16:16:00.097Z,99784.66
2022-09-09T16:18:50.565Z,99792.28
2022-09-09T16:21:41.563Z,99796.31
2022-09-09T16:24:34.771Z,99795.25
2022-09-09T16:27:24.216Z,99790.06
2022-09-09T16:30:13.735Z,99803.09
2022-09-09T16:33:02.605Z,99778.03
2022-09-09T16:35:51.542Z,99791.91
2022-09-09T16:38:41.031Z,99789.16
2022-09-09T16:41:31.963Z,99716.66
2022-09-09T16:44:20.733Z,99782.00
2022-09-09T16:47:09.914Z,99794.53
2022-09-09T16:49:58.685Z,99793.44
2022-09-09T16:52:47.352Z,99813.28
2022-09-09T16:55:39.823Z,99691.69
2022-09-09T16:58:30.399Z,99824.94
2022-09-09T17:01:19.931Z,99711.63
2022-09-09T17:04:11.849Z,99806.75
2022-09-09T17:07:01.506Z,99817.34
2022-09-09T17:09:50.226Z,99800.22
2022-09-09T17:12:42.229Z,99807.28
2022-09-09T17:15:32.808Z,99827.22
2022-09-09T17:18:21.691Z,99822.84
2022-09-09T17:21:12.179Z,99814.69
2022-09-09T17:24:00.936Z,99816.78
2022-09-09T17:26:49.473Z,99812.50
2022-09-09T17:29:37.985Z,99821.44
2022-09-09T17:32:27.863Z,99814.28
2022-09-09T17:35:16.762Z,99815.06
2022-09-09T17:38:06.257Z,99815.59
2022-09-09T17:41:03.553Z,99814.50
2022-09-09T17:43:52.441Z,99803.00
2022-09-09T17:46:42.612Z,99789.66
2022-09-09T17:49:32.604Z,99788.78
2022-09-09T17:52:22.045Z,99820.56
2022-09-09T17:55:11.042Z,99804.22
2022-09-09T17:58:00.070Z,99808.22
2022-09-09T18:00:49.585Z,99814.13
2022-09-09T18:03:38.867Z,99818.41
2022-09-09T18:06:31.246Z,99809.09
2022-09-09T18:09:26.907Z,99812.59
2022-09-09T18:12:16.064Z,99794.31
2022-09-09T18:15:05.464Z,99819.28
2022-09-09T18:17:54.077Z,99821.69
2022-09-09T18:20:42.626Z,99816.69
2022-09-09T18:23:32.768Z,99791.44
2022-09-09T18:26:22.806Z,99831.69
2022-09-09T18:29:13.292Z,99832.41
2022-09-09T18:32:01.746Z,99836.59
2022-09-09T18:34:55.412Z,99832.19
2022-09-09T18:37:44.226Z,99827.91
2022-09-09T18:40:34.418Z,99825.25
2022-09-09T18:43:23.154Z,99845.06
2022-09-09T18:46:12.525Z,99845.13
2022-09-09T18:49:01.842Z,99810.13
2022-09-09T18:51:50.711Z,99845.88
2022-09-09T18:54:41.295Z,99854.16
2022-09-09T18:57:36.270Z,99862.69
2022-09-09T19:00:25.200Z,99866.38
2022-09-09T19:03:13.971Z,99857.97
2022-09-09T19:06:03.556Z,99802.28
2022-09-09T19:08:56.330Z,99841.22
2022-09-09T19:11:47.707Z,99870.25
2022-09-09T19:14:38.720Z,99876.22
2022-09-09T19:17:28.758Z,99886.00
2022-09-09T19:20:17.420Z,99876.97
2022-09-09T19:23:06.193Z,99875.91
2022-09-09T19:25:56.059Z,99836.63
2022-09-09T19:28:46.322Z,99866.31
2022-09-09T19:31:36.739Z,99891.66
2022-09-09T19:34:25.574Z,99865.69
2022-09-09T19:37:18.174Z,99894.41
2022-09-09T19:40:09.073Z,99903.13
2022-09-09T19:42:58.367Z,99891.31
2022-09-09T19:45:57.519Z,99885.91
2022-09-09T19:48:48.765Z,99904.66
2022-09-09T19:51:37.568Z,99887.78
2022-09-09T19:54:26.394Z,99917.16
2022-09-09T19:57:15.643Z,99901.31
2022-09-09T20:00:05.357Z,99916.06
2022-09-09T20:03:15.582Z,99914.13
2022-09-09T20:06:04.663Z,99894.44
2022-09-09T20:08:53.938Z,99913.53
2022-09-09T20:11:43.274Z,99896.97
2022-09-09T20:14:34.043Z,99908.63
2022-09-09T20:17:25.904Z,99918.88
2022-09-09T20:20:14.549Z,99919.97
2022-09-09T20:23:04.436Z,99928.09
2022-09-09T20:25:53.004Z,99932.19
2022-09-09T20:28:42.287Z,99927.34
2022-09-09T20:31:31.457Z,99926.75
2022-09-09T20:34:22.806Z,99924.34
2022-09-09T20:37:11.605Z,99922.69
2022-09-09T20:40:02.183Z,99916.69
2022-09-09T20:42:51.915Z,99915.84
2022-09-09T20:45:43.720Z,99891.44
2022-09-09T20:48:34.508Z,99918.75
2022-09-09T20:51:24.524Z,99923.09
2022-09-09T20:54:14.881Z,99919.72
2022-09-09T20:57:05.257Z,99917.00
2022-09-09T20:59:53.746Z,99913.03
2022-09-09T21:02:42.282Z,99872.78
2022-09-09T21:05:30.756Z,99914.28
2022-09-09T21:08:19.302Z,99912.66
2022-09-09T21:11:08.633Z,99910.44
2022-09-09T21:13:59.569Z,99913.78
2022-09-09T21:16:48.054Z,99914.63
2022-09-09T21:19:36.727Z,99906.66
2022-09-09T21:22:25.202Z,99922.50
2022-09-09T21:25:13.784Z,99923.22
2022-09-09T21:28:02.325Z,99914.69
2022-09-09T21:30:55.123Z,99909.91
2022-09-09T21:33:44.198Z,99889.41
2022-09-09T21:36:33.801Z,99949.22
2022-09-09T21:39:23.065Z,99970.38
2022-09-09T21:42:11.550Z,99982.50
2022-09-09T21:45:00.140Z,99972.75
2022-09-09T21:47:51.156Z,99957.84
2022-09-09T21:50:39.824Z,99959.97
2022-09-09T21:53:28.352Z,99959.16
2022-09-09T21:56:19.207Z,99943.06
2022-09-09T21:59:08.112Z,99949.31
2022-09-09T22:01:56.755Z,99953.88
2022-09-09T22:04:46.674Z,99951.59
2022-09-09T22:07:35.146Z,99947.72
2022-09-09T22:10:24.057Z,99815.44
2022-09-09T22:13:13.703Z,99884.88
2022-09-09T22:16:03.555Z,99942.00
2022-09-09T22:18:53.541Z,99943.22
2022-09-09T22:21:43.508Z,99951.91
2022-09-09T22:24:32.017Z,99945.53
2022-09-09T22:27:20.654Z,99946.19
2022-09-09T22:30:10.795Z,99941.56
2022-09-09T22:33:00.228Z,99933.03
2022-09-09T22:35:49.198Z,99951.84
2022-09-09T22:38:39.474Z,99951.34
2022-09-09T22:41:29.970Z,99941.91
2022-09-09T22:44:18.524Z,99933.69
2022-09-09T22:47:07.015Z,99938.47
2022-09-09T22:49:56.931Z,99944.38
2022-09-09T22:52:45.410Z,99929.84
2022-09-09T22:55:35.455Z,99943.97
2022-09-09T22:58:23.895Z,99944.38
2022-09-09T23:01:15.332Z,99934.47
2022-09-09T23:04:04.505Z,99941.41
2022-09-09T23:06:53.034Z,99943.56
2022-09-09T23:09:41.463Z,99945.31
2022-09-09T23:12:31.303Z,99904.47
2022-09-09T23:15:20.145Z,99947.97
2022-09-09T23:18:08.610Z,99952.53
2022-09-09T23:21:00.406Z,99943.50
2022-09-09T23:23:49.198Z,99947.38
2022-09-09T23:26:38.427Z,99948.44
2022-09-09T23:29:28.443Z,99943.50
2022-09-09T23:32:18.047Z,99950.47
2022-09-09T23:35:07.489Z,99948.25
2022-09-09T23:37:55.961Z,99947.44
2022-09-09T23:40:47.129Z,99942.50
2022-09-09T23:43:39.557Z,99948.75
2022-09-09T23:46:30.858Z,99942.50
2022-09-09T23:49:19.575Z,99941.66
2022-09-09T23:52:08.063Z,99934.88
2022-09-09T23:54:57.151Z,99929.63
2022-09-09T23:57:45.655Z,99838.53
